sensor_id;sensor_type;location;lat;lon;timestamp;P1;durP1;ratioP1;P2;durP2;ratioP2
75593;SDS011;64176;49.156;7.810;2023-09-07T00:02:30;9.18;;;4.72;;
75593;SDS011;64176;49.156;7.810;2023-09-07T00:05:14;6.32;;;4.82;;
75593;SDS011;64176;49.156;7.810;2023-09-07T00:07:58;6.63;;;4.65;;
75593;SDS011;64176;49.156;7.810;2023-09-07T00:10:42;6.20;;;4.90;;
75593;SDS011;64176;49.156;7.810;2023-09-07T00:13:28;7.03;;;4.75;;
75593;SDS011;64176;49.156;7.810;2023-09-07T00:16:14;4.90;;;4.22;;
75593;SDS011;64176;49.156;7.810;2023-09-07T00:19:02;4.72;;;4.22;;
75593;SDS011;64176;49.156;7.810;2023-09-07T00:21:46;6.05;;;4.68;;
75593;SDS011;64176;49.156;7.810;2023-09-07T00:24:37;6.63;;;5.10;;
75593;SDS011;64176;49.156;7.810;2023-09-07T00:27:21;5.97;;;4.80;;
75593;SDS011;64176;49.156;7.810;2023-09-07T00:30:05;7.13;;;4.82;;
75593;SDS011;64176;49.156;7.810;2023-09-07T00:32:52;4.93;;;4.07;;
75593;SDS011;64176;49.156;7.810;2023-09-07T00:35:36;5.40;;;4.47;;
75593;SDS011;64176;49.156;7.810;2023-09-07T00:41:09;4.93;;;3.97;;
75593;SDS011;64176;49.156;7.810;2023-09-07T00:43:53;8.52;;;4.40;;
75593;SDS011;64176;49.156;7.810;2023-09-07T00:46:37;5.53;;;4.75;;
75593;SDS011;64176;49.156;7.810;2023-09-07T00:49:21;7.03;;;4.43;;
75593;SDS011;64176;49.156;7.810;2023-09-07T00:52:07;6.70;;;5.63;;
75593;SDS011;64176;49.156;7.810;2023-09-07T00:54:51;7.18;;;5.10;;
75593;SDS011;64176;49.156;7.810;2023-09-07T00:57:36;7.75;;;4.38;;
75593;SDS011;64176;49.156;7.810;2023-09-07T01:00:23;5.72;;;4.75;;
75593;SDS011;64176;49.156;7.810;2023-09-07T01:03:07;8.93;;;5.60;;
75593;SDS011;64176;49.156;7.810;2023-09-07T01:05:56;7.93;;;4.97;;
75593;SDS011;64176;49.156;7.810;2023-09-07T01:08:44;7.03;;;4.90;;
75593;SDS011;64176;49.156;7.810;2023-09-07T01:11:35;6.43;;;4.70;;
75593;SDS011;64176;49.156;7.810;2023-09-07T01:14:23;5.88;;;4.78;;
75593;SDS011;64176;49.156;7.810;2023-09-07T01:17:10;7.38;;;5.13;;
75593;SDS011;64176;49.156;7.810;2023-09-07T01:19:56;6.28;;;5.00;;
75593;SDS011;64176;49.156;7.810;2023-09-07T01:22:46;6.55;;;4.40;;
75593;SDS011;64176;49.156;7.810;2023-09-07T01:25:31;6.20;;;4.63;;
75593;SDS011;64176;49.156;7.810;2023-09-07T01:28:16;7.88;;;4.40;;
75593;SDS011;64176;49.156;7.810;2023-09-07T01:31:02;6.60;;;4.50;;
75593;SDS011;64176;49.156;7.810;2023-09-07T01:33:49;6.60;;;4.28;;
75593;SDS011;64176;49.156;7.810;2023-09-07T01:36:33;6.38;;;4.53;;
75593;SDS011;64176;49.156;7.810;2023-09-07T01:39:18;5.88;;;4.22;;
75593;SDS011;64176;49.156;7.810;2023-09-07T01:42:03;5.68;;;4.78;;
75593;SDS011;64176;49.156;7.810;2023-09-07T01:44:50;5.35;;;4.82;;
75593;SDS011;64176;49.156;7.810;2023-09-07T01:50:24;6.50;;;4.38;;
75593;SDS011;64176;49.156;7.810;2023-09-07T01:53:09;5.15;;;4.13;;
75593;SDS011;64176;49.156;7.810;2023-09-07T01:55:54;5.78;;;4.70;;
75593;SDS011;64176;49.156;7.810;2023-09-07T01:58:39;5.82;;;4.20;;
75593;SDS011;64176;49.156;7.810;2023-09-07T02:01:27;5.97;;;4.13;;
75593;SDS011;64176;49.156;7.810;2023-09-07T02:04:17;5.00;;;4.50;;
75593;SDS011;64176;49.156;7.810;2023-09-07T02:07:01;5.13;;;4.63;;
75593;SDS011;64176;49.156;7.810;2023-09-07T02:09:45;8.90;;;4.68;;
75593;SDS011;64176;49.156;7.810;2023-09-07T02:12:29;5.45;;;4.00;;
75593;SDS011;64176;49.156;7.810;2023-09-07T02:15:13;5.22;;;3.97;;
75593;SDS011;64176;49.156;7.810;2023-09-07T02:17:58;5.15;;;4.65;;
75593;SDS011;64176;49.156;7.810;2023-09-07T02:20:42;4.60;;;4.13;;
75593;SDS011;64176;49.156;7.810;2023-09-07T02:23:27;5.97;;;4.78;;
75593;SDS011;64176;49.156;7.810;2023-09-07T02:26:11;6.68;;;4.78;;
75593;SDS011;64176;49.156;7.810;2023-09-07T02:28:54;6.28;;;4.70;;
75593;SDS011;64176;49.156;7.810;2023-09-07T02:31:40;6.05;;;4.97;;
75593;SDS011;64176;49.156;7.810;2023-09-07T02:34:24;7.40;;;5.15;;
75593;SDS011;64176;49.156;7.810;2023-09-07T02:37:08;6.03;;;4.60;;
75593;SDS011;64176;49.156;7.810;2023-09-07T02:39:53;6.78;;;5.10;;
75593;SDS011;64176;49.156;7.810;2023-09-07T02:42:38;5.10;;;3.97;;
75593;SDS011;64176;49.156;7.810;2023-09-07T02:48:11;7.82;;;3.95;;
75593;SDS011;64176;49.156;7.810;2023-09-07T02:51:00;6.65;;;4.32;;
75593;SDS011;64176;49.156;7.810;2023-09-07T02:53:47;8.23;;;4.43;;
75593;SDS011;64176;49.156;7.810;2023-09-07T02:56:32;6.20;;;5.00;;
75593;SDS011;64176;49.156;7.810;2023-09-07T02:59:18;8.70;;;4.80;;
75593;SDS011;64176;49.156;7.810;2023-09-07T03:02:04;5.07;;;4.13;;
75593;SDS011;64176;49.156;7.810;2023-09-07T03:04:52;7.13;;;5.18;;
75593;SDS011;64176;49.156;7.810;2023-09-07T03:07:37;6.43;;;4.10;;
75593;SDS011;64176;49.156;7.810;2023-09-07T03:10:26;6.45;;;4.57;;
75593;SDS011;64176;49.156;7.810;2023-09-07T03:13:10;6.53;;;4.53;;
75593;SDS011;64176;49.156;7.810;2023-09-07T03:15:55;6.50;;;4.38;;
75593;SDS011;64176;49.156;7.810;2023-09-07T03:18:41;6.57;;;4.63;;
75593;SDS011;64176;49.156;7.810;2023-09-07T03:21:27;6.93;;;4.90;;
75593;SDS011;64176;49.156;7.810;2023-09-07T03:24:14;6.65;;;4.70;;
75593;SDS011;64176;49.156;7.810;2023-09-07T03:27:01;6.55;;;4.30;;
75593;SDS011;64176;49.156;7.810;2023-09-07T03:29:45;5.65;;;4.45;;
75593;SDS011;64176;49.156;7.810;2023-09-07T03:32:30;7.03;;;4.30;;
75593;SDS011;64176;49.156;7.810;2023-09-07T03:35:16;5.25;;;4.25;;
75593;SDS011;64176;49.156;7.810;2023-09-07T03:40:47;5.85;;;4.35;;
75593;SDS011;64176;49.156;7.810;2023-09-07T03:43:32;5.60;;;4.40;;
75593;SDS011;64176;49.156;7.810;2023-09-07T03:46:17;5.88;;;5.18;;
75593;SDS011;64176;49.156;7.810;2023-09-07T03:49:03;5.85;;;4.40;;
75593;SDS011;64176;49.156;7.810;2023-09-07T03:51:50;6.47;;;5.07;;
75593;SDS011;64176;49.156;7.810;2023-09-07T04:00:06;7.65;;;5.88;;
75593;SDS011;64176;49.156;7.810;2023-09-07T04:02:56;6.70;;;5.22;;
75593;SDS011;64176;49.156;7.810;2023-09-07T04:05:45;6.85;;;5.22;;
75593;SDS011;64176;49.156;7.810;2023-09-07T04:08:29;6.40;;;4.93;;
75593;SDS011;64176;49.156;7.810;2023-09-07T04:11:16;8.13;;;4.53;;
75593;SDS011;64176;49.156;7.810;2023-09-07T04:14:05;8.38;;;4.85;;
75593;SDS011;64176;49.156;7.810;2023-09-07T04:16:51;7.70;;;4.93;;
75593;SDS011;64176;49.156;7.810;2023-09-07T04:19:35;6.80;;;4.97;;
75593;SDS011;64176;49.156;7.810;2023-09-07T04:22:20;6.70;;;5.25;;
75593;SDS011;64176;49.156;7.810;2023-09-07T04:27:51;6.57;;;5.13;;
75593;SDS011;64176;49.156;7.810;2023-09-07T04:30:43;7.40;;;4.82;;
75593;SDS011;64176;49.156;7.810;2023-09-07T04:33:29;10.23;;;4.40;;
75593;SDS011;64176;49.156;7.810;2023-09-07T04:36:16;6.05;;;4.95;;
75593;SDS011;64176;49.156;7.810;2023-09-07T04:39:04;6.93;;;5.30;;
75593;SDS011;64176;49.156;7.810;2023-09-07T04:41:48;7.70;;;4.60;;
75593;SDS011;64176;49.156;7.810;2023-09-07T04:44:36;7.20;;;5.22;;
75593;SDS011;64176;49.156;7.810;2023-09-07T04:47:21;7.82;;;5.00;;
75593;SDS011;64176;49.156;7.810;2023-09-07T04:50:08;8.55;;;5.03;;
75593;SDS011;64176;49.156;7.810;2023-09-07T04:52:58;6.82;;;4.35;;
75593;SDS011;64176;49.156;7.810;2023-09-07T04:55:42;5.63;;;4.40;;
75593;SDS011;64176;49.156;7.810;2023-09-07T04:58:27;6.90;;;4.38;;
75593;SDS011;64176;49.156;7.810;2023-09-07T05:01:11;8.10;;;4.93;;
75593;SDS011;64176;49.156;7.810;2023-09-07T05:03:56;5.80;;;3.92;;
75593;SDS011;64176;49.156;7.810;2023-09-07T05:06:40;8.77;;;5.18;;
75593;SDS011;64176;49.156;7.810;2023-09-07T05:09:27;7.25;;;4.57;;
75593;SDS011;64176;49.156;7.810;2023-09-07T05:12:13;5.22;;;4.07;;
75593;SDS011;64176;49.156;7.810;2023-09-07T05:14:58;7.30;;;5.00;;
75593;SDS011;64176;49.156;7.810;2023-09-07T05:17:43;6.45;;;4.20;;
75593;SDS011;64176;49.156;7.810;2023-09-07T05:20:31;5.00;;;4.32;;
75593;SDS011;64176;49.156;7.810;2023-09-07T05:23:15;6.38;;;4.80;;
75593;SDS011;64176;49.156;7.810;2023-09-07T05:26:05;8.30;;;5.30;;
75593;SDS011;64176;49.156;7.810;2023-09-07T05:28:50;6.70;;;4.65;;
75593;SDS011;64176;49.156;7.810;2023-09-07T05:31:35;6.35;;;4.78;;
75593;SDS011;64176;49.156;7.810;2023-09-07T05:34:21;6.78;;;4.75;;
75593;SDS011;64176;49.156;7.810;2023-09-07T05:37:07;5.75;;;4.57;;
75593;SDS011;64176;49.156;7.810;2023-09-07T05:39:52;7.28;;;5.45;;
75593;SDS011;64176;49.156;7.810;2023-09-07T05:42:36;7.35;;;4.75;;
75593;SDS011;64176;49.156;7.810;2023-09-07T05:45:22;6.25;;;4.40;;
75593;SDS011;64176;49.156;7.810;2023-09-07T05:50:52;7.00;;;4.85;;
75593;SDS011;64176;49.156;7.810;2023-09-07T05:53:38;5.00;;;3.92;;
75593;SDS011;64176;49.156;7.810;2023-09-07T05:56:23;8.70;;;4.75;;
75593;SDS011;64176;49.156;7.810;2023-09-07T06:01:56;6.15;;;4.53;;
75593;SDS011;64176;49.156;7.810;2023-09-07T06:04:40;5.70;;;4.15;;
75593;SDS011;64176;49.156;7.810;2023-09-07T06:07:25;6.40;;;4.38;;
75593;SDS011;64176;49.156;7.810;2023-09-07T06:10:09;5.45;;;4.03;;
75593;SDS011;64176;49.156;7.810;2023-09-07T06:12:54;6.90;;;4.30;;
75593;SDS011;64176;49.156;7.810;2023-09-07T06:15:39;5.95;;;4.25;;
75593;SDS011;64176;49.156;7.810;2023-09-07T06:18:23;5.75;;;4.22;;
75593;SDS011;64176;49.156;7.810;2023-09-07T06:21:07;5.07;;;4.38;;
75593;SDS011;64176;49.156;7.810;2023-09-07T06:23:51;6.45;;;4.57;;
75593;SDS011;64176;49.156;7.810;2023-09-07T06:26:38;6.75;;;5.10;;
75593;SDS011;64176;49.156;7.810;2023-09-07T06:29:23;6.35;;;4.35;;
75593;SDS011;64176;49.156;7.810;2023-09-07T06:32:07;5.20;;;4.22;;
75593;SDS011;64176;49.156;7.810;2023-09-07T06:34:52;7.68;;;4.72;;
75593;SDS011;64176;49.156;7.810;2023-09-07T06:37:36;5.05;;;4.47;;
75593;SDS011;64176;49.156;7.810;2023-09-07T06:40:24;5.63;;;3.95;;
75593;SDS011;64176;49.156;7.810;2023-09-07T06:43:11;6.75;;;4.38;;
75593;SDS011;64176;49.156;7.810;2023-09-07T06:45:55;8.65;;;4.57;;
75593;SDS011;64176;49.156;7.810;2023-09-07T06:48:39;6.43;;;4.28;;
75593;SDS011;64176;49.156;7.810;2023-09-07T06:51:25;7.32;;;5.15;;
75593;SDS011;64176;49.156;7.810;2023-09-07T06:56:58;5.72;;;4.53;;
75593;SDS011;64176;49.156;7.810;2023-09-07T06:59:42;8.32;;;4.40;;
75593;SDS011;64176;49.156;7.810;2023-09-07T07:02:27;5.25;;;4.50;;
75593;SDS011;64176;49.156;7.810;2023-09-07T07:05:14;5.97;;;4.38;;
75593;SDS011;64176;49.156;7.810;2023-09-07T07:07:59;6.80;;;4.95;;
75593;SDS011;64176;49.156;7.810;2023-09-07T07:10:43;4.95;;;3.97;;
75593;SDS011;64176;49.156;7.810;2023-09-07T07:18:58;9.27;;;6.78;;
75593;SDS011;64176;49.156;7.810;2023-09-07T07:21:44;19.45;;;13.60;;
75593;SDS011;64176;49.156;7.810;2023-09-07T07:24:30;16.13;;;10.55;;
75593;SDS011;64176;49.156;7.810;2023-09-07T07:27:19;8.70;;;5.43;;
75593;SDS011;64176;49.156;7.810;2023-09-07T07:32:49;12.50;;;7.95;;
75593;SDS011;64176;49.156;7.810;2023-09-07T07:35:36;6.90;;;5.63;;
75593;SDS011;64176;49.156;7.810;2023-09-07T07:38:24;3.75;;;2.90;;
75593;SDS011;64176;49.156;7.810;2023-09-07T07:41:08;3.25;;;2.95;;
75593;SDS011;64176;49.156;7.810;2023-09-07T07:43:52;4.38;;;3.08;;
75593;SDS011;64176;49.156;7.810;2023-09-07T07:46:36;3.53;;;2.90;;
75593;SDS011;64176;49.156;7.810;2023-09-07T07:49:20;4.07;;;3.28;;
75593;SDS011;64176;49.156;7.810;2023-09-07T07:52:07;3.95;;;2.92;;
75593;SDS011;64176;49.156;7.810;2023-09-07T07:54:52;6.03;;;3.00;;
75593;SDS011;64176;49.156;7.810;2023-09-07T07:57:38;5.25;;;2.83;;
75593;SDS011;64176;49.156;7.810;2023-09-07T08:00:22;4.70;;;3.50;;
75593;SDS011;64176;49.156;7.810;2023-09-07T08:03:10;5.68;;;3.05;;
75593;SDS011;64176;49.156;7.810;2023-09-07T08:05:57;3.42;;;2.97;;
75593;SDS011;64176;49.156;7.810;2023-09-07T08:08:41;5.63;;;3.28;;
75593;SDS011;64176;49.156;7.810;2023-09-07T08:11:28;4.40;;;3.17;;
75593;SDS011;64176;49.156;7.810;2023-09-07T08:14:15;3.42;;;2.78;;
75593;SDS011;64176;49.156;7.810;2023-09-07T08:16:59;3.40;;;2.95;;
75593;SDS011;64176;49.156;7.810;2023-09-07T08:19:44;10.27;;;4.10;;
75593;SDS011;64176;49.156;7.810;2023-09-07T08:22:31;3.45;;;3.15;;
75593;SDS011;64176;49.156;7.810;2023-09-07T08:25:17;3.90;;;3.50;;
75593;SDS011;64176;49.156;7.810;2023-09-07T08:28:00;3.40;;;3.10;;
75593;SDS011;64176;49.156;7.810;2023-09-07T08:30:49;5.68;;;3.30;;
75593;SDS011;64176;49.156;7.810;2023-09-07T08:33:37;4.18;;;3.13;;
75593;SDS011;64176;49.156;7.810;2023-09-07T08:36:23;4.65;;;3.05;;
75593;SDS011;64176;49.156;7.810;2023-09-07T08:39:17;5.32;;;3.47;;
75593;SDS011;64176;49.156;7.810;2023-09-07T08:42:02;4.68;;;3.60;;
75593;SDS011;64176;49.156;7.810;2023-09-07T08:44:46;7.00;;;3.33;;
75593;SDS011;64176;49.156;7.810;2023-09-07T08:47:36;4.53;;;3.58;;
75593;SDS011;64176;49.156;7.810;2023-09-07T08:50:24;4.45;;;3.67;;
75593;SDS011;64176;49.156;7.810;2023-09-07T08:53:11;4.55;;;3.58;;
75593;SDS011;64176;49.156;7.810;2023-09-07T08:55:55;8.25;;;3.70;;
75593;SDS011;64176;49.156;7.810;2023-09-07T08:58:43;4.25;;;3.60;;
75593;SDS011;64176;49.156;7.810;2023-09-07T09:01:28;5.18;;;3.70;;
75593;SDS011;64176;49.156;7.810;2023-09-07T09:04:15;5.25;;;3.80;;
75593;SDS011;64176;49.156;7.810;2023-09-07T09:06:59;3.80;;;3.15;;
75593;SDS011;64176;49.156;7.810;2023-09-07T09:09:47;3.95;;;3.30;;
75593;SDS011;64176;49.156;7.810;2023-09-07T09:12:36;4.32;;;3.35;;
75593;SDS011;64176;49.156;7.810;2023-09-07T09:15:31;4.63;;;3.40;;
75593;SDS011;64176;49.156;7.810;2023-09-07T09:18:15;3.67;;;3.08;;
75593;SDS011;64176;49.156;7.810;2023-09-07T09:20:59;6.53;;;2.80;;
75593;SDS011;64176;49.156;7.810;2023-09-07T09:23:50;3.50;;;3.13;;
75593;SDS011;64176;49.156;7.810;2023-09-07T09:26:38;4.43;;;3.60;;
75593;SDS011;64176;49.156;7.810;2023-09-07T09:29:25;5.45;;;3.55;;
75593;SDS011;64176;49.156;7.810;2023-09-07T09:32:13;5.05;;;4.13;;
75593;SDS011;64176;49.156;7.810;2023-09-07T09:34:57;4.97;;;3.38;;
75593;SDS011;64176;49.156;7.810;2023-09-07T09:37:49;6.22;;;3.78;;
75593;SDS011;64176;49.156;7.810;2023-09-07T09:40:33;4.18;;;3.55;;
75593;SDS011;64176;49.156;7.810;2023-09-07T09:43:20;5.88;;;3.58;;
75593;SDS011;64176;49.156;7.810;2023-09-07T09:46:08;4.82;;;3.83;;
75593;SDS011;64176;49.156;7.810;2023-09-07T09:48:52;4.93;;;3.58;;
75593;SDS011;64176;49.156;7.810;2023-09-07T09:51:38;4.55;;;3.28;;
75593;SDS011;64176;49.156;7.810;2023-09-07T09:54:22;7.05;;;3.58;;
75593;SDS011;64176;49.156;7.810;2023-09-07T09:57:07;4.45;;;3.58;;
75593;SDS011;64176;49.156;7.810;2023-09-07T09:59:51;5.20;;;3.70;;
75593;SDS011;64176;49.156;7.810;2023-09-07T10:02:38;4.45;;;3.10;;
75593;SDS011;64176;49.156;7.810;2023-09-07T10:05:26;4.20;;;3.42;;
75593;SDS011;64176;49.156;7.810;2023-09-07T10:08:14;6.55;;;3.50;;
75593;SDS011;64176;49.156;7.810;2023-09-07T10:13:56;4.35;;;3.90;;
75593;SDS011;64176;49.156;7.810;2023-09-07T10:16:44;4.00;;;3.33;;
75593;SDS011;64176;49.156;7.810;2023-09-07T10:19:35;6.32;;;3.47;;
75593;SDS011;64176;49.156;7.810;2023-09-07T10:22:23;4.43;;;3.47;;
75593;SDS011;64176;49.156;7.810;2023-09-07T10:25:21;4.20;;;3.80;;
75593;SDS011;64176;49.156;7.810;2023-09-07T10:28:16;4.93;;;3.30;;
75593;SDS011;64176;49.156;7.810;2023-09-07T10:31:02;4.05;;;3.65;;
75593;SDS011;64176;49.156;7.810;2023-09-07T10:34:09;5.00;;;4.40;;
75593;SDS011;64176;49.156;7.810;2023-09-07T10:36:57;4.55;;;3.30;;
75593;SDS011;64176;49.156;7.810;2023-09-07T10:39:42;3.92;;;3.28;;
75593;SDS011;64176;49.156;7.810;2023-09-07T10:42:32;4.43;;;3.63;;
75593;SDS011;64176;49.156;7.810;2023-09-07T10:45:16;4.68;;;3.58;;
75593;SDS011;64176;49.156;7.810;2023-09-07T10:48:03;4.22;;;3.65;;
75593;SDS011;64176;49.156;7.810;2023-09-07T10:50:48;5.15;;;3.55;;
75593;SDS011;64176;49.156;7.810;2023-09-07T10:53:32;5.90;;;3.90;;
75593;SDS011;64176;49.156;7.810;2023-09-07T10:56:19;5.03;;;3.75;;
75593;SDS011;64176;49.156;7.810;2023-09-07T10:59:03;6.63;;;4.38;;
75593;SDS011;64176;49.156;7.810;2023-09-07T11:01:49;4.93;;;4.13;;
75593;SDS011;64176;49.156;7.810;2023-09-07T11:04:34;4.65;;;3.85;;
75593;SDS011;64176;49.156;7.810;2023-09-07T11:07:18;4.28;;;3.72;;
75593;SDS011;64176;49.156;7.810;2023-09-07T11:10:05;5.13;;;3.50;;
75593;SDS011;64176;49.156;7.810;2023-09-07T11:12:50;5.60;;;4.20;;
75593;SDS011;64176;49.156;7.810;2023-09-07T11:15:35;5.88;;;4.72;;
75593;SDS011;64176;49.156;7.810;2023-09-07T11:18:22;6.50;;;3.75;;
75593;SDS011;64176;49.156;7.810;2023-09-07T11:21:06;6.13;;;4.25;;
75593;SDS011;64176;49.156;7.810;2023-09-07T11:23:56;5.88;;;4.10;;
75593;SDS011;64176;49.156;7.810;2023-09-07T11:26:47;4.32;;;3.70;;
75593;SDS011;64176;49.156;7.810;2023-09-07T11:29:34;6.07;;;4.13;;
75593;SDS011;64176;49.156;7.810;2023-09-07T11:32:18;6.40;;;4.82;;
75593;SDS011;64176;49.156;7.810;2023-09-07T11:35:05;5.30;;;3.83;;
75593;SDS011;64176;49.156;7.810;2023-09-07T11:37:55;5.30;;;4.40;;
75593;SDS011;64176;49.156;7.810;2023-09-07T11:40:43;4.38;;;3.85;;
75593;SDS011;64176;49.156;7.810;2023-09-07T11:43:28;5.57;;;4.53;;
75593;SDS011;64176;49.156;7.810;2023-09-07T11:46:12;5.80;;;3.92;;
75593;SDS011;64176;49.156;7.810;2023-09-07T11:48:59;4.85;;;3.78;;
75593;SDS011;64176;49.156;7.810;2023-09-07T11:51:43;4.65;;;3.60;;
75593;SDS011;64176;49.156;7.810;2023-09-07T11:54:27;4.65;;;3.40;;
75593;SDS011;64176;49.156;7.810;2023-09-07T11:57:11;5.70;;;3.72;;
75593;SDS011;64176;49.156;7.810;2023-09-07T11:59:56;4.88;;;3.70;;
75593;SDS011;64176;49.156;7.810;2023-09-07T12:02:40;3.58;;;3.28;;
75593;SDS011;64176;49.156;7.810;2023-09-07T12:05:29;4.47;;;3.55;;
75593;SDS011;64176;49.156;7.810;2023-09-07T12:08:16;4.75;;;3.83;;
75593;SDS011;64176;49.156;7.810;2023-09-07T12:11:00;5.50;;;4.63;;
75593;SDS011;64176;49.156;7.810;2023-09-07T12:13:44;5.20;;;3.97;;
75593;SDS011;64176;49.156;7.810;2023-09-07T12:16:31;3.90;;;3.50;;
75593;SDS011;64176;49.156;7.810;2023-09-07T12:19:15;5.95;;;3.40;;
75593;SDS011;64176;49.156;7.810;2023-09-07T12:22:04;6.53;;;3.50;;
75593;SDS011;64176;49.156;7.810;2023-09-07T12:24:48;4.10;;;3.70;;
75593;SDS011;64176;49.156;7.810;2023-09-07T12:27:35;4.95;;;3.72;;
75593;SDS011;64176;49.156;7.810;2023-09-07T12:30:19;5.80;;;3.85;;
75593;SDS011;64176;49.156;7.810;2023-09-07T12:33:06;4.00;;;3.40;;
75593;SDS011;64176;49.156;7.810;2023-09-07T12:35:52;5.03;;;3.92;;
75593;SDS011;64176;49.156;7.810;2023-09-07T12:38:36;4.30;;;3.90;;
75593;SDS011;64176;49.156;7.810;2023-09-07T12:41:22;5.53;;;3.75;;
75593;SDS011;64176;49.156;7.810;2023-09-07T12:44:06;4.75;;;3.60;;
75593;SDS011;64176;49.156;7.810;2023-09-07T12:46:53;3.55;;;3.25;;
75593;SDS011;64176;49.156;7.810;2023-09-07T12:49:37;4.63;;;3.72;;
75593;SDS011;64176;49.156;7.810;2023-09-07T12:52:21;4.28;;;3.88;;
75593;SDS011;64176;49.156;7.810;2023-09-07T12:55:05;7.00;;;3.67;;
75593;SDS011;64176;49.156;7.810;2023-09-07T12:57:50;5.45;;;3.75;;
75593;SDS011;64176;49.156;7.810;2023-09-07T13:00:34;4.10;;;3.38;;
75593;SDS011;64176;49.156;7.810;2023-09-07T13:03:20;3.78;;;3.15;;
75593;SDS011;64176;49.156;7.810;2023-09-07T13:06:04;4.78;;;4.28;;
75593;SDS011;64176;49.156;7.810;2023-09-07T13:08:49;3.78;;;3.47;;
75593;SDS011;64176;49.156;7.810;2023-09-07T13:11:35;4.55;;;3.60;;
75593;SDS011;64176;49.156;7.810;2023-09-07T13:14:22;8.60;;;3.83;;
75593;SDS011;64176;49.156;7.810;2023-09-07T13:17:11;5.80;;;3.47;;
75593;SDS011;64176;49.156;7.810;2023-09-07T13:19:57;4.22;;;3.20;;
75593;SDS011;64176;49.156;7.810;2023-09-07T13:22:42;5.80;;;3.75;;
75593;SDS011;64176;49.156;7.810;2023-09-07T13:25:31;4.40;;;3.40;;
75593;SDS011;64176;49.156;7.810;2023-09-07T13:28:17;4.28;;;3.50;;
75593;SDS011;64176;49.156;7.810;2023-09-07T13:31:04;4.38;;;3.22;;
75593;SDS011;64176;49.156;7.810;2023-09-07T13:33:48;3.70;;;3.10;;
75593;SDS011;64176;49.156;7.810;2023-09-07T13:36:32;4.80;;;4.03;;
75593;SDS011;64176;49.156;7.810;2023-09-07T13:39:16;4.75;;;4.07;;
75593;SDS011;64176;49.156;7.810;2023-09-07T13:42:01;5.97;;;3.00;;
75593;SDS011;64176;49.156;7.810;2023-09-07T13:44:47;3.95;;;3.55;;
75593;SDS011;64176;49.156;7.810;2023-09-07T13:47:33;4.82;;;3.90;;
75593;SDS011;64176;49.156;7.810;2023-09-07T13:50:19;5.45;;;3.75;;
75593;SDS011;64176;49.156;7.810;2023-09-07T13:53:04;4.70;;;3.10;;
75593;SDS011;64176;49.156;7.810;2023-09-07T13:55:50;5.20;;;3.13;;
75593;SDS011;64176;49.156;7.810;2023-09-07T13:58:37;4.07;;;3.40;;
75593;SDS011;64176;49.156;7.810;2023-09-07T14:01:26;4.78;;;3.10;;
75593;SDS011;64176;49.156;7.810;2023-09-07T14:04:10;6.78;;;3.28;;
75593;SDS011;64176;49.156;7.810;2023-09-07T14:06:54;6.25;;;3.53;;
75593;SDS011;64176;49.156;7.810;2023-09-07T14:09:38;4.25;;;3.58;;
75593;SDS011;64176;49.156;7.810;2023-09-07T14:12:22;3.60;;;3.25;;
75593;SDS011;64176;49.156;7.810;2023-09-07T14:15:08;4.88;;;3.47;;
75593;SDS011;64176;49.156;7.810;2023-09-07T14:17:54;3.60;;;3.20;;
75593;SDS011;64176;49.156;7.810;2023-09-07T14:20:41;3.60;;;3.20;;
75593;SDS011;64176;49.156;7.810;2023-09-07T14:23:25;6.28;;;3.60;;
75593;SDS011;64176;49.156;7.810;2023-09-07T14:26:09;4.97;;;3.30;;
75593;SDS011;64176;49.156;7.810;2023-09-07T14:28:56;3.50;;;2.90;;
75593;SDS011;64176;49.156;7.810;2023-09-07T14:31:42;3.65;;;3.33;;
75593;SDS011;64176;49.156;7.810;2023-09-07T14:34:27;5.20;;;3.40;;
75593;SDS011;64176;49.156;7.810;2023-09-07T14:37:11;4.68;;;3.80;;
75593;SDS011;64176;49.156;7.810;2023-09-07T14:39:55;3.58;;;3.15;;
75593;SDS011;64176;49.156;7.810;2023-09-07T14:42:45;4.53;;;3.40;;
75593;SDS011;64176;49.156;7.810;2023-09-07T14:45:29;4.75;;;3.25;;
75593;SDS011;64176;49.156;7.810;2023-09-07T14:48:15;3.38;;;3.08;;
75593;SDS011;64176;49.156;7.810;2023-09-07T14:51:02;6.13;;;3.40;;
75593;SDS011;64176;49.156;7.810;2023-09-07T14:53:48;3.10;;;2.80;;
75593;SDS011;64176;49.156;7.810;2023-09-07T14:56:32;6.63;;;3.85;;
75593;SDS011;64176;49.156;7.810;2023-09-07T14:59:19;4.03;;;3.10;;
75593;SDS011;64176;49.156;7.810;2023-09-07T15:02:03;4.80;;;3.78;;
75593;SDS011;64176;49.156;7.810;2023-09-07T15:04:47;5.93;;;2.97;;
75593;SDS011;64176;49.156;7.810;2023-09-07T15:07:31;4.55;;;3.78;;
75593;SDS011;64176;49.156;7.810;2023-09-07T15:10:18;5.28;;;3.47;;
75593;SDS011;64176;49.156;7.810;2023-09-07T15:13:01;5.68;;;3.60;;
75593;SDS011;64176;49.156;7.810;2023-09-07T15:15:46;5.03;;;3.00;;
75593;SDS011;64176;49.156;7.810;2023-09-07T15:18:32;3.97;;;3.15;;
75593;SDS011;64176;49.156;7.810;2023-09-07T15:21:19;5.68;;;3.30;;
75593;SDS011;64176;49.156;7.810;2023-09-07T15:24:06;4.10;;;3.45;;
75593;SDS011;64176;49.156;7.810;2023-09-07T15:26:50;5.55;;;3.53;;
75593;SDS011;64176;49.156;7.810;2023-09-07T15:29:34;3.65;;;3.03;;
75593;SDS011;64176;49.156;7.810;2023-09-07T15:32:19;6.60;;;3.17;;
75593;SDS011;64176;49.156;7.810;2023-09-07T15:35:03;3.72;;;3.22;;
75593;SDS011;64176;49.156;7.810;2023-09-07T15:37:48;4.18;;;2.80;;
75593;SDS011;64176;49.156;7.810;2023-09-07T15:40:32;4.75;;;3.58;;
75593;SDS011;64176;49.156;7.810;2023-09-07T15:43:16;4.22;;;3.30;;
75593;SDS011;64176;49.156;7.810;2023-09-07T15:46:03;4.55;;;3.25;;
75593;SDS011;64176;49.156;7.810;2023-09-07T15:48:48;3.97;;;2.80;;
75593;SDS011;64176;49.156;7.810;2023-09-07T15:51:34;4.35;;;3.50;;
75593;SDS011;64176;49.156;7.810;2023-09-07T15:54:18;5.97;;;3.08;;
75593;SDS011;64176;49.156;7.810;2023-09-07T15:57:02;4.60;;;2.75;;
75593;SDS011;64176;49.156;7.810;2023-09-07T15:59:48;4.22;;;3.20;;
75593;SDS011;64176;49.156;7.810;2023-09-07T16:02:33;4.65;;;3.35;;
75593;SDS011;64176;49.156;7.810;2023-09-07T16:05:19;4.38;;;2.97;;
75593;SDS011;64176;49.156;7.810;2023-09-07T16:08:04;3.97;;;3.15;;
75593;SDS011;64176;49.156;7.810;2023-09-07T16:10:53;3.92;;;2.85;;
75593;SDS011;64176;49.156;7.810;2023-09-07T16:13:38;4.60;;;2.92;;
75593;SDS011;64176;49.156;7.810;2023-09-07T16:16:29;3.60;;;3.17;;
75593;SDS011;64176;49.156;7.810;2023-09-07T16:19:13;5.72;;;3.20;;
75593;SDS011;64176;49.156;7.810;2023-09-07T16:21:59;4.30;;;3.58;;
75593;SDS011;64176;49.156;7.810;2023-09-07T16:24:43;4.45;;;3.47;;
75593;SDS011;64176;49.156;7.810;2023-09-07T16:27:30;3.67;;;3.10;;
75593;SDS011;64176;49.156;7.810;2023-09-07T16:30:24;5.30;;;3.45;;
75593;SDS011;64176;49.156;7.810;2023-09-07T16:33:11;5.07;;;3.45;;
75593;SDS011;64176;49.156;7.810;2023-09-07T16:35:55;6.03;;;3.22;;
75593;SDS011;64176;49.156;7.810;2023-09-07T16:38:39;7.53;;;3.13;;
75593;SDS011;64176;49.156;7.810;2023-09-07T16:41:23;6.85;;;3.60;;
75593;SDS011;64176;49.156;7.810;2023-09-07T16:44:07;5.15;;;3.80;;
75593;SDS011;64176;49.156;7.810;2023-09-07T16:46:51;8.63;;;6.03;;
75593;SDS011;64176;49.156;7.810;2023-09-07T16:49:36;3.95;;;3.50;;
75593;SDS011;64176;49.156;7.810;2023-09-07T16:52:20;4.22;;;3.47;;
75593;SDS011;64176;49.156;7.810;2023-09-07T16:55:06;4.93;;;3.40;;
75593;SDS011;64176;49.156;7.810;2023-09-07T16:57:55;4.75;;;3.42;;
75593;SDS011;64176;49.156;7.810;2023-09-07T17:00:44;6.55;;;3.97;;
75593;SDS011;64176;49.156;7.810;2023-09-07T17:03:28;6.38;;;3.17;;
75593;SDS011;64176;49.156;7.810;2023-09-07T17:06:12;4.65;;;3.63;;
75593;SDS011;64176;49.156;7.810;2023-09-07T17:09:02;4.50;;;3.33;;
75593;SDS011;64176;49.156;7.810;2023-09-07T17:11:49;3.80;;;3.30;;
75593;SDS011;64176;49.156;7.810;2023-09-07T17:14:33;4.93;;;3.30;;
75593;SDS011;64176;49.156;7.810;2023-09-07T17:17:20;5.00;;;3.90;;
75593;SDS011;64176;49.156;7.810;2023-09-07T17:20:04;5.72;;;4.05;;